EZS47BN EGKK-LFSB
Flight info
| Callsign | EZS47BN |
|---|---|
| Flight time | 1h 10m |
| Altitude | 29000 |
| Route | SFD Y47 BENBO L612 HAWKE UL612 VEULE DCT TEPRI UN491 POGZI DCT GELTA DCT MANAG DCT MOTUK DCT LUL G42 ARPUS |
| Aircraft | A320/M-SDE3FGHIRWY/LB1 |
Departure
| Time | 2026-05-05 18:50 |
|---|---|
| Airport | London Gatwick Airport (EGKK) |
Arrival
| Time | 2026-05-05 20:00 |
|---|---|
| Airport | EuroAirport Basel–Mulhouse–Freiburg (LFSB) |
| Time | Latitude | Longitude | Altitude | Speed | Heading |
|---|---|---|---|---|---|
| 2026-05-05 18:07 | 51.16025 | -0.18001 | 212 ft | 0 kts | 78° |
| 2026-05-05 18:37 | 51.16024 | -0.18013 | 204 ft | 4 kts | 78° |
| 2026-05-05 18:37 | 51.16018 | -0.18055 | 207 ft | 4 kts | 78° |
| 2026-05-05 18:37 | 51.16013 | -0.18089 | 204 ft | 3 kts | 78° |
| 2026-05-05 18:38 | 51.16012 | -0.18127 | 204 ft | 4 kts | 124° |
| 2026-05-05 18:38 | 51.16030 | -0.18144 | 208 ft | 4 kts | 168° |
| 2026-05-05 18:38 | 51.16042 | -0.18148 | 204 ft | 0 kts | 168° |
| 2026-05-05 18:41 | 51.16029 | -0.18143 | 210 ft | 5 kts | 168° |
| 2026-05-05 18:41 | 51.15978 | -0.18126 | 213 ft | 10 kts | 167° |
| 2026-05-05 18:41 | 51.15898 | -0.18098 | 209 ft | 13 kts | 168° |
| 2026-05-05 18:41 | 51.15805 | -0.18066 | 212 ft | 15 kts | 167° |
| 2026-05-05 18:42 | 51.15720 | -0.18037 | 208 ft | 9 kts | 169° |
| 2026-05-05 18:42 | 51.15679 | -0.18104 | 208 ft | 10 kts | 257° |
| 2026-05-05 18:42 | 51.15663 | -0.18226 | 204 ft | 12 kts | 258° |
| 2026-05-05 18:42 | 51.15634 | -0.18345 | 213 ft | 11 kts | 216° |
| 2026-05-05 18:43 | 51.15554 | -0.18335 | 204 ft | 13 kts | 168° |
| 2026-05-05 18:43 | 51.15494 | -0.18315 | 209 ft | 13 kts | 167° |
| 2026-05-05 18:43 | 51.15396 | -0.18281 | 204 ft | 15 kts | 168° |
| 2026-05-05 18:43 | 51.15287 | -0.18242 | 204 ft | 17 kts | 168° |
| 2026-05-05 18:44 | 51.15205 | -0.18229 | 204 ft | 11 kts | 206° |
| 2026-05-05 18:44 | 51.15183 | -0.18348 | 212 ft | 12 kts | 262° |
| 2026-05-05 18:44 | 51.15166 | -0.18475 | 203 ft | 11 kts | 257° |
| 2026-05-05 18:44 | 51.15148 | -0.18609 | 203 ft | 15 kts | 257° |
| 2026-05-05 18:45 | 51.15122 | -0.18796 | 203 ft | 19 kts | 257° |
| 2026-05-05 18:45 | 51.15094 | -0.18999 | 204 ft | 18 kts | 258° |
| 2026-05-05 18:45 | 51.15066 | -0.19194 | 206 ft | 14 kts | 257° |
| 2026-05-05 18:45 | 51.15023 | -0.19266 | 209 ft | 8 kts | 184° |
| 2026-05-05 18:46 | 51.14976 | -0.19277 | 206 ft | 9 kts | 213° |
| 2026-05-05 18:46 | 51.14947 | -0.19400 | 206 ft | 16 kts | 258° |
| 2026-05-05 18:46 | 51.14918 | -0.19610 | 206 ft | 22 kts | 257° |
| 2026-05-05 18:46 | 51.14884 | -0.19854 | 214 ft | 24 kts | 257° |
| 2026-05-05 18:47 | 51.14846 | -0.20123 | 208 ft | 26 kts | 258° |
| 2026-05-05 18:47 | 51.14810 | -0.20392 | 209 ft | 24 kts | 258° |
| 2026-05-05 18:47 | 51.14778 | -0.20626 | 206 ft | 22 kts | 257° |
| 2026-05-05 18:47 | 51.14747 | -0.20840 | 212 ft | 17 kts | 257° |
| 2026-05-05 18:48 | 51.14725 | -0.21008 | 211 ft | 15 kts | 258° |
| 2026-05-05 18:48 | 51.14705 | -0.21156 | 208 ft | 13 kts | 257° |
| 2026-05-05 18:48 | 51.14686 | -0.21284 | 208 ft | 11 kts | 250° |
| 2026-05-05 18:48 | 51.14626 | -0.21328 | 204 ft | 10 kts | 173° |
| 2026-05-05 18:49 | 51.14561 | -0.21296 | 209 ft | 13 kts | 152° |
| 2026-05-05 18:49 | 51.14519 | -0.21168 | 202 ft | 12 kts | 85° |
| 2026-05-05 18:49 | 51.14538 | -0.21036 | 211 ft | 17 kts | 78° |
| 2026-05-05 18:49 | 51.14610 | -0.20505 | 211 ft | 84 kts | 77° |
| 2026-05-05 18:50 | 51.14782 | -0.19269 | 209 ft | 141 kts | 77° |
| 2026-05-05 18:50 | 51.15014 | -0.17560 | 504 ft | 162 kts | 78° |
| 2026-05-05 18:50 | 51.15252 | -0.15812 | 1205 ft | 162 kts | 78° |
| 2026-05-05 18:50 | 51.15498 | -0.14023 | 1786 ft | 173 kts | 77° |
| 2026-05-05 18:51 | 51.15771 | -0.12031 | 2098 ft | 195 kts | 77° |
| 2026-05-05 18:51 | 51.16080 | -0.09791 | 2424 ft | 218 kts | 77° |
| 2026-05-05 18:51 | 51.16179 | -0.07388 | 3166 ft | 227 kts | 102° |
| 2026-05-05 18:51 | 51.15336 | -0.05200 | 3776 ft | 249 kts | 139° |
| 2026-05-05 18:52 | 51.13706 | -0.03955 | 4291 ft | 271 kts | 164° |
| 2026-05-05 18:52 | 51.11833 | -0.03390 | 5125 ft | 276 kts | 172° |
| 2026-05-05 18:52 | 51.09905 | -0.03027 | 5986 ft | 281 kts | 172° |
| 2026-05-05 18:52 | 51.07945 | -0.02674 | 6865 ft | 286 kts | 172° |
| 2026-05-05 18:53 | 51.05982 | -0.02119 | 7737 ft | 288 kts | 165° |
| 2026-05-05 18:53 | 51.04040 | -0.01270 | 8594 ft | 291 kts | 162° |
| 2026-05-05 18:53 | 51.02102 | -0.00296 | 9440 ft | 293 kts | 161° |
| 2026-05-05 18:53 | 51.00154 | 0.00714 | 10256 ft | 297 kts | 161° |
| 2026-05-05 18:54 | 50.98176 | 0.01724 | 11034 ft | 300 kts | 161° |
| 2026-05-05 18:54 | 50.96175 | 0.02719 | 11830 ft | 303 kts | 162° |
| 2026-05-05 18:54 | 50.94153 | 0.03700 | 12621 ft | 305 kts | 162° |
| 2026-05-05 18:54 | 50.92049 | 0.04592 | 12979 ft | 324 kts | 166° |
| 2026-05-05 18:55 | 50.89775 | 0.05374 | 13279 ft | 341 kts | 168° |
| 2026-05-05 18:55 | 50.87420 | 0.06096 | 13879 ft | 348 kts | 169° |
| 2026-05-05 18:55 | 50.85027 | 0.06793 | 14545 ft | 351 kts | 169° |
| 2026-05-05 18:55 | 50.82609 | 0.07497 | 15213 ft | 355 kts | 169° |
| 2026-05-05 18:56 | 50.80174 | 0.08218 | 15864 ft | 358 kts | 168° |
| 2026-05-05 18:56 | 50.77720 | 0.08960 | 16502 ft | 361 kts | 168° |
| 2026-05-05 18:56 | 50.75246 | 0.09719 | 17131 ft | 364 kts | 168° |
| 2026-05-05 18:56 | 50.72752 | 0.10491 | 17742 ft | 367 kts | 168° |
| 2026-05-05 18:57 | 50.70240 | 0.11271 | 18328 ft | 369 kts | 168° |
| 2026-05-05 18:57 | 50.67708 | 0.12057 | 18908 ft | 373 kts | 168° |
| 2026-05-05 18:57 | 50.65151 | 0.12849 | 19466 ft | 376 kts | 168° |
| 2026-05-05 18:57 | 50.62579 | 0.13645 | 20000 ft | 379 kts | 168° |
| 2026-05-05 18:58 | 50.59979 | 0.14445 | 20524 ft | 382 kts | 168° |
| 2026-05-05 18:58 | 50.57360 | 0.15250 | 21028 ft | 385 kts | 168° |
| 2026-05-05 18:58 | 50.54717 | 0.16057 | 21522 ft | 388 kts | 168° |
| 2026-05-05 18:58 | 50.52058 | 0.16888 | 21993 ft | 391 kts | 166° |
| 2026-05-05 18:59 | 50.49498 | 0.18343 | 22441 ft | 393 kts | 156° |
| 2026-05-05 18:59 | 50.46981 | 0.20069 | 22895 ft | 396 kts | 156° |
| 2026-05-05 18:59 | 50.44448 | 0.21818 | 23350 ft | 399 kts | 156° |
| 2026-05-05 18:59 | 50.41899 | 0.23584 | 23777 ft | 402 kts | 155° |
| 2026-05-05 19:00 | 50.39333 | 0.25368 | 24195 ft | 405 kts | 155° |
| 2026-05-05 19:00 | 50.36745 | 0.27160 | 24607 ft | 407 kts | 156° |
| 2026-05-05 19:00 | 50.34143 | 0.28950 | 25035 ft | 409 kts | 156° |
| 2026-05-05 19:00 | 50.31532 | 0.30745 | 25466 ft | 411 kts | 156° |
| 2026-05-05 19:01 | 50.28912 | 0.32546 | 25883 ft | 412 kts | 156° |
| 2026-05-05 19:01 | 50.26319 | 0.34326 | 26294 ft | 413 kts | 156° |
| 2026-05-05 19:01 | 50.23643 | 0.36162 | 26702 ft | 415 kts | 156° |
| 2026-05-05 19:01 | 50.21034 | 0.37951 | 27091 ft | 416 kts | 156° |
| 2026-05-05 19:02 | 50.18381 | 0.39770 | 27481 ft | 417 kts | 156° |
| 2026-05-05 19:02 | 50.15723 | 0.41591 | 27876 ft | 418 kts | 156° |
| 2026-05-05 19:02 | 50.13051 | 0.43420 | 28248 ft | 419 kts | 156° |
| 2026-05-05 19:02 | 50.10377 | 0.45249 | 28600 ft | 421 kts | 156° |
| 2026-05-05 19:03 | 50.07689 | 0.47085 | 28859 ft | 425 kts | 156° |
| 2026-05-05 19:03 | 50.04942 | 0.48955 | 28908 ft | 433 kts | 156° |
| 2026-05-05 19:03 | 49.99343 | 0.52757 | 28906 ft | 445 kts | 156° |
| 2026-05-05 19:04 | 49.93656 | 0.56607 | 28895 ft | 446 kts | 155° |
| 2026-05-05 19:04 | 49.88004 | 0.60560 | 28894 ft | 445 kts | 150° |
| 2026-05-05 19:05 | 49.83111 | 0.66361 | 28898 ft | 444 kts | 133° |
| 2026-05-05 19:05 | 49.78956 | 0.73413 | 28892 ft | 443 kts | 132° |
| 2026-05-05 19:06 | 49.74797 | 0.80444 | 28890 ft | 443 kts | 132° |
| 2026-05-05 19:06 | 49.70639 | 0.87461 | 28889 ft | 442 kts | 132° |
| 2026-05-05 19:07 | 49.66482 | 0.94460 | 28886 ft | 442 kts | 132° |
| 2026-05-05 19:07 | 49.62325 | 1.01438 | 28887 ft | 441 kts | 132° |
| 2026-05-05 19:08 | 49.58170 | 1.08392 | 28886 ft | 441 kts | 132° |
| 2026-05-05 19:08 | 49.54038 | 1.15279 | 28883 ft | 440 kts | 132° |
| 2026-05-05 19:09 | 49.49857 | 1.22241 | 28879 ft | 440 kts | 132° |
| 2026-05-05 19:09 | 49.45733 | 1.29092 | 28879 ft | 439 kts | 132° |
| 2026-05-05 19:10 | 49.41586 | 1.35969 | 28876 ft | 438 kts | 133° |
| 2026-05-05 19:10 | 49.37434 | 1.42815 | 28873 ft | 438 kts | 132° |
| 2026-05-05 19:11 | 49.33290 | 1.49652 | 28855 ft | 438 kts | 133° |
| 2026-05-05 19:11 | 49.29136 | 1.56472 | 28838 ft | 437 kts | 133° |
| 2026-05-05 19:12 | 49.24988 | 1.63269 | 28843 ft | 437 kts | 133° |
| 2026-05-05 19:12 | 49.20844 | 1.70060 | 28841 ft | 437 kts | 133° |
| 2026-05-05 19:13 | 49.16691 | 1.76839 | 28839 ft | 437 kts | 133° |
| 2026-05-05 19:13 | 49.12528 | 1.83600 | 28838 ft | 437 kts | 133° |
| 2026-05-05 19:14 | 49.08359 | 1.90351 | 28834 ft | 437 kts | 133° |
| 2026-05-05 19:14 | 49.04195 | 1.97086 | 28835 ft | 437 kts | 133° |
| 2026-05-05 19:15 | 49.00020 | 2.03818 | 28834 ft | 437 kts | 133° |
| 2026-05-05 19:15 | 48.95842 | 2.10531 | 28827 ft | 437 kts | 133° |
| 2026-05-05 19:16 | 48.91661 | 2.17233 | 28826 ft | 437 kts | 133° |
| 2026-05-05 19:16 | 48.87478 | 2.23929 | 28828 ft | 437 kts | 133° |
| 2026-05-05 19:17 | 48.83290 | 2.30619 | 28822 ft | 437 kts | 133° |
| 2026-05-05 19:17 | 48.79098 | 2.37303 | 28824 ft | 437 kts | 133° |
| 2026-05-05 19:18 | 48.74894 | 2.43975 | 28823 ft | 437 kts | 133° |
| 2026-05-05 19:18 | 48.70691 | 2.50634 | 28825 ft | 438 kts | 133° |
| 2026-05-05 19:19 | 48.66479 | 2.57286 | 28824 ft | 438 kts | 133° |
| 2026-05-05 19:19 | 48.62260 | 2.63933 | 28829 ft | 438 kts | 133° |
| 2026-05-05 19:20 | 48.58182 | 2.70754 | 28829 ft | 437 kts | 125° |
| 2026-05-05 19:20 | 48.55557 | 2.78988 | 28832 ft | 438 kts | 106° |
| 2026-05-05 19:21 | 48.54810 | 2.88037 | 28827 ft | 440 kts | 94° |
| 2026-05-05 19:21 | 48.54511 | 2.97264 | 28824 ft | 440 kts | 94° |
| 2026-05-05 19:22 | 48.54191 | 3.06495 | 28819 ft | 441 kts | 94° |
| 2026-05-05 19:22 | 48.53859 | 3.15741 | 28816 ft | 441 kts | 95° |
| 2026-05-05 19:23 | 48.53157 | 3.24903 | 28812 ft | 439 kts | 108° |
| 2026-05-05 19:23 | 48.51295 | 3.33685 | 28810 ft | 440 kts | 109° |
| 2026-05-05 19:24 | 48.49395 | 3.42467 | 28803 ft | 441 kts | 109° |
| 2026-05-05 19:24 | 48.47493 | 3.51259 | 28801 ft | 442 kts | 109° |
| 2026-05-05 19:25 | 48.45588 | 3.60055 | 28800 ft | 442 kts | 109° |
| 2026-05-05 19:25 | 48.43672 | 3.68864 | 28796 ft | 443 kts | 110° |
| 2026-05-05 19:26 | 48.41738 | 3.77670 | 28795 ft | 443 kts | 110° |
| 2026-05-05 19:26 | 48.39810 | 3.86488 | 28796 ft | 444 kts | 110° |
| 2026-05-05 19:27 | 48.37871 | 3.95298 | 28796 ft | 444 kts | 110° |
| 2026-05-05 19:27 | 48.35922 | 4.04106 | 28794 ft | 444 kts | 110° |
| 2026-05-05 19:28 | 48.33960 | 4.12912 | 28796 ft | 444 kts | 110° |
| 2026-05-05 19:28 | 48.32008 | 4.21658 | 28796 ft | 444 kts | 110° |
| 2026-05-05 19:29 | 48.30039 | 4.30453 | 28796 ft | 444 kts | 110° |
| 2026-05-05 19:29 | 48.28063 | 4.39246 | 28795 ft | 444 kts | 110° |
| 2026-05-05 19:30 | 48.26083 | 4.48015 | 28796 ft | 443 kts | 110° |
| 2026-05-05 19:30 | 48.24099 | 4.56775 | 28792 ft | 443 kts | 110° |
| 2026-05-05 19:31 | 48.22445 | 4.64040 | 28794 ft | 443 kts | 111° |
| 2026-05-05 19:31 | 48.20443 | 4.72778 | 28795 ft | 443 kts | 111° |
| 2026-05-05 19:32 | 48.18445 | 4.81520 | 28799 ft | 443 kts | 111° |
| 2026-05-05 19:32 | 48.16431 | 4.90247 | 28803 ft | 443 kts | 111° |
| 2026-05-05 19:33 | 48.14409 | 4.98969 | 28825 ft | 443 kts | 111° |
| 2026-05-05 19:33 | 48.12384 | 5.07682 | 28832 ft | 443 kts | 111° |
| 2026-05-05 19:34 | 48.10308 | 5.16359 | 28836 ft | 442 kts | 116° |
| 2026-05-05 19:35 | 48.06006 | 5.28477 | 28851 ft | 440 kts | 121° |
| 2026-05-05 19:35 | 48.03110 | 5.36524 | 28856 ft | 440 kts | 121° |
| 2026-05-05 19:36 | 48.00218 | 5.44506 | 28858 ft | 440 kts | 121° |
| 2026-05-05 19:36 | 47.97297 | 5.52530 | 28842 ft | 440 kts | 122° |
| 2026-05-05 19:37 | 47.94374 | 5.60557 | 28737 ft | 439 kts | 122° |
| 2026-05-05 19:37 | 47.92914 | 5.64555 | 27844 ft | 439 kts | 122° |
| 2026-05-05 19:37 | 47.91448 | 5.68562 | 26811 ft | 442 kts | 122° |
| 2026-05-05 19:37 | 47.89970 | 5.72587 | 25761 ft | 444 kts | 122° |
| 2026-05-05 19:38 | 47.88483 | 5.76626 | 24653 ft | 446 kts | 122° |
| 2026-05-05 19:38 | 47.86994 | 5.80669 | 24006 ft | 443 kts | 122° |
| 2026-05-05 19:38 | 47.85510 | 5.84695 | 23732 ft | 442 kts | 122° |
| 2026-05-05 19:38 | 47.84035 | 5.88695 | 23435 ft | 441 kts | 122° |
| 2026-05-05 19:39 | 47.82559 | 5.92689 | 23154 ft | 441 kts | 122° |
| 2026-05-05 19:39 | 47.81080 | 5.96689 | 22892 ft | 441 kts | 122° |
| 2026-05-05 19:39 | 47.79605 | 6.00676 | 22662 ft | 439 kts | 122° |
| 2026-05-05 19:39 | 47.78143 | 6.04628 | 21948 ft | 434 kts | 122° |
| 2026-05-05 19:40 | 47.76819 | 6.08665 | 21028 ft | 437 kts | 112° |
| 2026-05-05 19:40 | 47.76046 | 6.13037 | 20282 ft | 436 kts | 107° |
| 2026-05-05 19:40 | 47.75343 | 6.17394 | 19559 ft | 432 kts | 107° |
| 2026-05-05 19:40 | 47.74642 | 6.21720 | 18855 ft | 429 kts | 107° |
| 2026-05-05 19:41 | 47.73946 | 6.26008 | 18164 ft | 425 kts | 107° |
| 2026-05-05 19:41 | 47.73252 | 6.30262 | 17494 ft | 422 kts | 107° |
| 2026-05-05 19:41 | 47.72563 | 6.34472 | 16858 ft | 418 kts | 107° |
| 2026-05-05 19:41 | 47.71880 | 6.38636 | 16252 ft | 413 kts | 107° |
| 2026-05-05 19:42 | 47.71200 | 6.42761 | 15677 ft | 409 kts | 107° |
| 2026-05-05 19:42 | 47.70520 | 6.46842 | 15098 ft | 406 kts | 107° |
| 2026-05-05 19:42 | 47.69849 | 6.50881 | 14546 ft | 401 kts | 107° |
| 2026-05-05 19:42 | 47.69186 | 6.54887 | 14038 ft | 402 kts | 107° |
| 2026-05-05 19:43 | 47.68510 | 6.58954 | 13841 ft | 408 kts | 107° |
| 2026-05-05 19:43 | 47.67829 | 6.63048 | 13322 ft | 402 kts | 106° |
| 2026-05-05 19:43 | 47.67270 | 6.67002 | 12723 ft | 384 kts | 100° |
| 2026-05-05 19:43 | 47.67059 | 6.70871 | 12127 ft | 368 kts | 96° |
| 2026-05-05 19:44 | 47.66894 | 6.74589 | 11523 ft | 353 kts | 96° |
| 2026-05-05 19:44 | 47.66725 | 6.78158 | 10913 ft | 341 kts | 96° |
| 2026-05-05 19:44 | 47.66556 | 6.81609 | 10435 ft | 328 kts | 97° |
| 2026-05-05 19:44 | 47.66393 | 6.84884 | 10181 ft | 309 kts | 97° |
| 2026-05-05 19:45 | 47.66239 | 6.87983 | 9938 ft | 294 kts | 97° |
| 2026-05-05 19:45 | 47.66101 | 6.90909 | 9874 ft | 277 kts | 97° |
| 2026-05-05 19:45 | 47.65958 | 6.93750 | 9874 ft | 275 kts | 97° |
| 2026-05-05 19:45 | 47.65812 | 6.96598 | 9873 ft | 279 kts | 97° |
| 2026-05-05 19:46 | 47.65665 | 6.99394 | 9864 ft | 275 kts | 98° |
| 2026-05-05 19:46 | 47.65514 | 7.02243 | 9864 ft | 274 kts | 97° |
| 2026-05-05 19:46 | 47.65366 | 7.05025 | 9870 ft | 275 kts | 97° |
| 2026-05-05 19:46 | 47.65217 | 7.07890 | 9871 ft | 275 kts | 97° |
| 2026-05-05 19:47 | 47.65072 | 7.10728 | 9837 ft | 277 kts | 97° |
| 2026-05-05 19:47 | 47.64927 | 7.13568 | 9561 ft | 276 kts | 97° |
| 2026-05-05 19:47 | 47.64780 | 7.16395 | 9253 ft | 275 kts | 97° |
| 2026-05-05 19:47 | 47.64634 | 7.19180 | 8965 ft | 275 kts | 97° |
| 2026-05-05 19:48 | 47.64487 | 7.22003 | 8667 ft | 274 kts | 97° |
| 2026-05-05 19:48 | 47.64338 | 7.24814 | 8365 ft | 272 kts | 97° |
| 2026-05-05 19:48 | 47.64219 | 7.27608 | 8068 ft | 272 kts | 89° |
| 2026-05-05 19:48 | 47.64717 | 7.30287 | 7760 ft | 271 kts | 58° |
| 2026-05-05 19:49 | 47.65968 | 7.32337 | 7461 ft | 269 kts | 37° |
| 2026-05-05 19:49 | 47.66947 | 7.33460 | 7260 ft | 268 kts | 34° |
| 2026-05-05 19:49 | 47.68957 | 7.35638 | 6869 ft | 267 kts | 33° |
| 2026-05-05 19:49 | 47.70458 | 7.37248 | 6561 ft | 265 kts | 33° |
| 2026-05-05 19:50 | 47.71954 | 7.38850 | 6259 ft | 265 kts | 33° |
| 2026-05-05 19:50 | 47.73444 | 7.40442 | 5950 ft | 264 kts | 33° |
| 2026-05-05 19:50 | 47.74930 | 7.42033 | 5654 ft | 262 kts | 33° |
| 2026-05-05 19:50 | 47.76409 | 7.43610 | 5355 ft | 261 kts | 33° |
| 2026-05-05 19:51 | 47.77877 | 7.45172 | 5055 ft | 258 kts | 33° |
| 2026-05-05 19:51 | 47.79330 | 7.46708 | 4764 ft | 255 kts | 33° |
| 2026-05-05 19:51 | 47.80777 | 7.48227 | 4454 ft | 253 kts | 33° |
| 2026-05-05 19:51 | 47.82318 | 7.49378 | 4154 ft | 246 kts | 8° |
| 2026-05-05 19:52 | 47.83963 | 7.49225 | 3997 ft | 235 kts | 335° |
| 2026-05-05 19:52 | 47.85239 | 7.47813 | 4002 ft | 229 kts | 302° |
| 2026-05-05 19:52 | 47.85776 | 7.45649 | 3992 ft | 223 kts | 270° |
| 2026-05-05 19:52 | 47.85411 | 7.43448 | 3997 ft | 222 kts | 237° |
| 2026-05-05 19:53 | 47.84276 | 7.41942 | 3992 ft | 223 kts | 204° |
| 2026-05-05 19:53 | 47.82779 | 7.41487 | 3987 ft | 217 kts | 186° |
| 2026-05-05 19:53 | 47.81270 | 7.41382 | 3996 ft | 217 kts | 184° |
| 2026-05-05 19:53 | 47.79761 | 7.41321 | 3996 ft | 217 kts | 184° |
| 2026-05-05 19:54 | 47.78251 | 7.41268 | 3996 ft | 217 kts | 183° |
| 2026-05-05 19:54 | 47.76739 | 7.41217 | 3995 ft | 218 kts | 183° |
| 2026-05-05 19:54 | 47.75238 | 7.41555 | 3750 ft | 221 kts | 160° |
| 2026-05-05 19:54 | 47.73848 | 7.42519 | 3468 ft | 220 kts | 156° |
| 2026-05-05 19:55 | 47.72471 | 7.43504 | 3182 ft | 219 kts | 156° |
| 2026-05-05 19:55 | 47.71092 | 7.44474 | 2894 ft | 219 kts | 156° |
| 2026-05-05 19:55 | 47.69701 | 7.45447 | 2475 ft | 223 kts | 155° |
| 2026-05-05 19:55 | 47.68301 | 7.46426 | 2054 ft | 228 kts | 154° |
| 2026-05-05 19:56 | 47.66850 | 7.47440 | 1715 ft | 223 kts | 154° |
| 2026-05-05 19:56 | 47.65511 | 7.48375 | 1699 ft | 204 kts | 154° |
| 2026-05-05 19:56 | 47.64295 | 7.49316 | 1706 ft | 197 kts | 140° |
| 2026-05-05 19:56 | 47.63452 | 7.50898 | 1717 ft | 186 kts | 119° |
| 2026-05-05 19:57 | 47.62892 | 7.52454 | 1710 ft | 163 kts | 116° |
| 2026-05-05 19:57 | 47.62560 | 7.53447 | 1711 ft | 155 kts | 115° |
| 2026-05-05 19:57 | 47.61960 | 7.55286 | 1719 ft | 145 kts | 115° |
| 2026-05-05 19:57 | 47.61382 | 7.56488 | 1716 ft | 143 kts | 132° |
| 2026-05-05 19:58 | 47.60982 | 7.57793 | 1716 ft | 141 kts | 91° |
| 2026-05-05 19:58 | 47.60873 | 7.59232 | 1685 ft | 142 kts | 116° |
| 2026-05-05 19:58 | 47.60124 | 7.60111 | 1703 ft | 143 kts | 169° |
| 2026-05-05 19:58 | 47.59200 | 7.59750 | 1697 ft | 143 kts | 225° |
| 2026-05-05 19:59 | 47.58906 | 7.58412 | 1633 ft | 143 kts | 282° |
| 2026-05-05 19:59 | 47.59336 | 7.57109 | 1360 ft | 140 kts | 295° |
| 2026-05-05 19:59 | 47.59413 | 7.55702 | 1167 ft | 140 kts | 258° |
| 2026-05-05 19:59 | 47.59196 | 7.54299 | 1013 ft | 140 kts | 259° |
| 2026-05-05 20:00 | 47.58987 | 7.52920 | 891 ft | 128 kts | 257° |
| 2026-05-05 20:00 | 47.58856 | 7.52079 | 895 ft | 51 kts | 257° |
| 2026-05-05 20:00 | 47.58811 | 7.51768 | 893 ft | 14 kts | 274° |
| 2026-05-05 20:00 | 47.58886 | 7.51678 | 890 ft | 16 kts | 345° |
| 2026-05-05 20:01 | 47.58985 | 7.51728 | 890 ft | 17 kts | 44° |
| 2026-05-05 20:01 | 47.59071 | 7.51857 | 890 ft | 18 kts | 45° |
| 2026-05-05 20:01 | 47.59167 | 7.51999 | 890 ft | 20 kts | 45° |
| 2026-05-05 20:01 | 47.59239 | 7.52112 | 890 ft | 12 kts | 47° |
| 2026-05-05 20:02 | 47.59281 | 7.52211 | 890 ft | 11 kts | 64° |
| 2026-05-05 20:02 | 47.59313 | 7.52308 | 890 ft | 13 kts | 64° |
| 2026-05-05 20:02 | 47.59368 | 7.52485 | 890 ft | 17 kts | 65° |
| 2026-05-05 20:02 | 47.59423 | 7.52656 | 890 ft | 19 kts | 64° |
| 2026-05-05 20:03 | 47.59472 | 7.52811 | 890 ft | 13 kts | 64° |
| 2026-05-05 20:03 | 47.59501 | 7.52855 | 890 ft | 5 kts | 356° |
| 2026-05-05 20:03 | 47.59575 | 7.52809 | 890 ft | 12 kts | 335° |
| 2026-05-05 20:03 | 47.59639 | 7.52848 | 890 ft | 11 kts | 63° |
| 2026-05-05 20:04 | 47.59672 | 7.52946 | 890 ft | 10 kts | 64° |
| 2026-05-05 20:04 | 47.59712 | 7.53020 | 890 ft | 9 kts | 21° |
| 2026-05-05 20:04 | 47.59768 | 7.53030 | 890 ft | 8 kts | 0° |
| 2026-05-05 20:04 | 47.59818 | 7.52976 | 890 ft | 9 kts | 315° |
| 2026-05-05 20:05 | 47.59833 | 7.52952 | 890 ft | 1 kts | 314° |
| 2026-05-05 20:05 | 47.59834 | 7.52951 | 890 ft | 0 kts | 314° |